sensor_id;sensor_type;location;lat;lon;timestamp;pressure;altitude;pressure_sealevel;temperature;humidity
29121;BME280;16191;49.548;8.658;2024-03-02T00:00:09;99182.94;;;7.21;100.00
29121;BME280;16191;49.548;8.658;2024-03-02T00:02:45;99181.13;;;7.23;100.00
29121;BME280;16191;49.548;8.658;2024-03-02T00:05:15;99180.34;;;7.21;100.00
29121;BME280;16191;49.548;8.658;2024-03-02T00:07:42;99175.38;;;7.16;100.00
29121;BME280;16191;49.548;8.658;2024-03-02T00:10:11;99177.13;;;7.16;100.00
29121;BME280;16191;49.548;8.658;2024-03-02T00:12:40;99171.25;;;7.12;100.00
29121;BME280;16191;49.548;8.658;2024-03-02T00:17:56;99168.28;;;7.20;100.00
29121;BME280;16191;49.548;8.658;2024-03-02T00:20:23;99171.78;;;7.19;100.00
29121;BME280;16191;49.548;8.658;2024-03-02T00:22:50;99159.88;;;7.15;100.00
29121;BME280;16191;49.548;8.658;2024-03-02T00:25:17;99169.50;;;7.13;100.00
29121;BME280;16191;49.548;8.658;2024-03-02T00:27:47;99155.94;;;7.06;100.00
29121;BME280;16191;49.548;8.658;2024-03-02T00:30:56;99155.34;;;7.00;100.00
29121;BME280;16191;49.548;8.658;2024-03-02T00:33:26;99149.38;;;6.98;100.00
29121;BME280;16191;49.548;8.658;2024-03-02T00:35:56;99151.78;;;7.02;100.00
29121;BME280;16191;49.548;8.658;2024-03-02T00:38:23;99159.63;;;7.01;100.00
29121;BME280;16191;49.548;8.658;2024-03-02T00:40:51;99151.72;;;7.04;100.00
29121;BME280;16191;49.548;8.658;2024-03-02T00:43:43;99160.41;;;7.03;100.00
29121;BME280;16191;49.548;8.658;2024-03-02T00:46:18;99164.56;;;7.07;100.00
29121;BME280;16191;49.548;8.658;2024-03-02T00:49:03;99159.63;;;7.01;100.00
29121;BME280;16191;49.548;8.658;2024-03-02T00:51:31;99161.25;;;7.03;100.00
29121;BME280;16191;49.548;8.658;2024-03-02T00:54:07;99166.19;;;7.09;100.00
29121;BME280;16191;49.548;8.658;2024-03-02T00:56:34;99157.88;;;7.01;100.00
29121;BME280;16191;49.548;8.658;2024-03-02T00:59:03;99154.69;;;6.95;100.00
29121;BME280;16191;49.548;8.658;2024-03-02T01:01:30;99159.22;;;6.91;100.00
29121;BME280;16191;49.548;8.658;2024-03-02T01:03:57;99158.91;;;6.97;100.00
29121;BME280;16191;49.548;8.658;2024-03-02T01:06:23;99157.03;;;7.01;100.00
29121;BME280;16191;49.548;8.658;2024-03-02T01:08:50;99156.31;;;6.97;100.00
29121;BME280;16191;49.548;8.658;2024-03-02T01:11:19;99168.19;;;7.03;100.00
29121;BME280;16191;49.548;8.658;2024-03-02T01:13:49;99165.72;;;7.00;100.00
29121;BME280;16191;49.548;8.658;2024-03-02T01:16:16;99174.47;;;6.97;100.00
29121;BME280;16191;49.548;8.658;2024-03-02T01:18:43;99178.63;;;7.01;100.00
29121;BME280;16191;49.548;8.658;2024-03-02T01:21:10;99189.19;;;6.97;100.00
29121;BME280;16191;49.548;8.658;2024-03-02T01:23:37;99183.94;;;6.98;100.00
29121;BME280;16191;49.548;8.658;2024-03-02T01:26:04;99190.69;;;7.02;100.00
29121;BME280;16191;49.548;8.658;2024-03-02T01:28:30;99187.13;;;7.05;100.00
29121;BME280;16191;49.548;8.658;2024-03-02T01:30:57;99186.03;;;6.90;100.00
29121;BME280;16191;49.548;8.658;2024-03-02T01:33:24;99181.91;;;6.86;100.00
29121;BME280;16191;49.548;8.658;2024-03-02T01:35:51;99174.59;;;6.94;100.00
29121;BME280;16191;49.548;8.658;2024-03-02T01:38:18;99177.91;;;6.98;100.00
29121;BME280;16191;49.548;8.658;2024-03-02T01:40:44;99169.22;;;6.99;100.00
29121;BME280;16191;49.548;8.658;2024-03-02T01:43:11;99175.63;;;6.92;100.00
29121;BME280;16191;49.548;8.658;2024-03-02T01:45:38;99178.94;;;6.94;100.00
29121;BME280;16191;49.548;8.658;2024-03-02T01:48:06;99167.84;;;6.92;100.00
29121;BME280;16191;49.548;8.658;2024-03-02T01:50:34;99171.34;;;6.91;100.00
29121;BME280;16191;49.548;8.658;2024-03-02T01:53:01;99163.56;;;6.91;100.00
29121;BME280;16191;49.548;8.658;2024-03-02T01:55:31;99156.09;;;6.83;100.00
29121;BME280;16191;49.548;8.658;2024-03-02T01:58:00;99159.34;;;6.88;100.00
29121;BME280;16191;49.548;8.658;2024-03-02T02:00:26;99153.81;;;6.75;100.00
29121;BME280;16191;49.548;8.658;2024-03-02T02:02:54;99143.06;;;6.84;100.00
29121;BME280;16191;49.548;8.658;2024-03-02T02:05:21;99139.75;;;6.81;100.00
29121;BME280;16191;49.548;8.658;2024-03-02T02:07:48;99141.88;;;6.71;100.00
29121;BME280;16191;49.548;8.658;2024-03-02T02:10:15;99142.03;;;6.68;100.00
29121;BME280;16191;49.548;8.658;2024-03-02T02:12:42;99132.00;;;6.61;100.00
29121;BME280;16191;49.548;8.658;2024-03-02T02:15:22;99130.38;;;6.58;100.00
29121;BME280;16191;49.548;8.658;2024-03-02T02:17:49;99127.78;;;6.58;100.00
29121;BME280;16191;49.548;8.658;2024-03-02T02:20:17;99132.81;;;6.61;100.00
29121;BME280;16191;49.548;8.658;2024-03-02T02:23:08;99125.91;;;6.62;100.00
29121;BME280;16191;49.548;8.658;2024-03-02T02:25:36;99120.47;;;6.68;100.00
29121;BME280;16191;49.548;8.658;2024-03-02T02:28:03;99119.88;;;6.61;100.00
29121;BME280;16191;49.548;8.658;2024-03-02T02:30:31;99128.94;;;6.51;100.00
29121;BME280;16191;49.548;8.658;2024-03-02T02:32:59;99128.75;;;6.56;100.00
29121;BME280;16191;49.548;8.658;2024-03-02T02:35:26;99123.97;;;6.46;100.00
29121;BME280;16191;49.548;8.658;2024-03-02T02:37:56;99121.16;;;6.51;100.00
29121;BME280;16191;49.548;8.658;2024-03-02T02:40:43;99123.91;;;6.48;100.00
29121;BME280;16191;49.548;8.658;2024-03-02T02:43:30;99126.94;;;6.58;100.00
29121;BME280;16191;49.548;8.658;2024-03-02T02:46:17;99117.09;;;6.45;100.00
29121;BME280;16191;49.548;8.658;2024-03-02T02:49:03;99112.41;;;6.53;100.00
29121;BME280;16191;49.548;8.658;2024-03-02T02:51:50;99114.22;;;6.51;100.00
29121;BME280;16191;49.548;8.658;2024-03-02T02:54:37;99102.88;;;6.54;100.00
29121;BME280;16191;49.548;8.658;2024-03-02T02:57:04;99104.38;;;6.39;100.00
29121;BME280;16191;49.548;8.658;2024-03-02T02:59:31;99108.78;;;6.37;100.00
29121;BME280;16191;49.548;8.658;2024-03-02T03:01:58;99104.31;;;6.41;100.00
29121;BME280;16191;49.548;8.658;2024-03-02T03:04:24;99107.03;;;6.38;100.00
29121;BME280;16191;49.548;8.658;2024-03-02T03:06:51;99111.00;;;6.46;100.00
29121;BME280;16191;49.548;8.658;2024-03-02T03:09:18;99105.94;;;6.43;100.00
29121;BME280;16191;49.548;8.658;2024-03-02T03:11:44;99097.50;;;6.38;100.00
29121;BME280;16191;49.548;8.658;2024-03-02T03:14:11;99099.72;;;6.47;100.00
29121;BME280;16191;49.548;8.658;2024-03-02T03:16:38;99098.25;;;6.42;100.00
29121;BME280;16191;49.548;8.658;2024-03-02T03:19:05;99100.75;;;6.43;100.00
29121;BME280;16191;49.548;8.658;2024-03-02T03:21:32;99097.22;;;6.46;100.00
29121;BME280;16191;49.548;8.658;2024-03-02T03:23:58;99093.56;;;6.50;100.00
29121;BME280;16191;49.548;8.658;2024-03-02T03:26:25;99099.72;;;6.47;100.00
29121;BME280;16191;49.548;8.658;2024-03-02T03:28:52;99104.38;;;6.39;100.00
29121;BME280;16191;49.548;8.658;2024-03-02T03:31:18;99106.31;;;6.34;100.00
29121;BME280;16191;49.548;8.658;2024-03-02T03:33:45;99097.69;;;6.34;100.00
29121;BME280;16191;49.548;8.658;2024-03-02T03:36:12;99102.09;;;6.32;100.00
29121;BME280;16191;49.548;8.658;2024-03-02T03:38:38;99094.34;;;6.32;100.00
29121;BME280;16191;49.548;8.658;2024-03-02T03:41:06;99096.81;;;6.35;100.00
29121;BME280;16191;49.548;8.658;2024-03-02T03:43:33;99096.97;;;6.30;100.00
29121;BME280;16191;49.548;8.658;2024-03-02T03:46:00;99091.19;;;6.25;100.00
29121;BME280;16191;49.548;8.658;2024-03-02T03:48:27;99086.25;;;6.19;100.00
29121;BME280;16191;49.548;8.658;2024-03-02T03:50:57;99088.72;;;6.22;100.00
29121;BME280;16191;49.548;8.658;2024-03-02T03:53:24;99085.53;;;6.15;100.00
29121;BME280;16191;49.548;8.658;2024-03-02T03:55:50;99088.09;;;6.15;100.00
29121;BME280;16191;49.548;8.658;2024-03-02T03:58:17;99101.59;;;6.24;100.00
29121;BME280;16191;49.548;8.658;2024-03-02T04:00:48;99099.00;;;6.24;100.00
29121;BME280;16191;49.548;8.658;2024-03-02T04:03:15;99099.06;;;6.22;100.00
29121;BME280;16191;49.548;8.658;2024-03-02T04:05:42;99095.31;;;6.29;100.00
29121;BME280;16191;49.548;8.658;2024-03-02T04:08:08;99100.47;;;6.29;100.00
29121;BME280;16191;49.548;8.658;2024-03-02T04:10:35;99097.97;;;6.28;100.00
29121;BME280;16191;49.548;8.658;2024-03-02T04:13:02;99102.22;;;6.29;100.00
29121;BME280;16191;49.548;8.658;2024-03-02T04:15:29;99096.28;;;6.27;100.00
29121;BME280;16191;49.548;8.658;2024-03-02T04:17:56;99100.47;;;6.29;100.00
29121;BME280;16191;49.548;8.658;2024-03-02T04:20:22;99102.09;;;6.32;100.00
29121;BME280;16191;49.548;8.658;2024-03-02T04:22:49;99096.84;;;6.33;100.00
29121;BME280;16191;49.548;8.658;2024-03-02T04:25:16;99095.50;;;6.25;100.00
29121;BME280;16191;49.548;8.658;2024-03-02T04:27:42;99097.81;;;6.31;100.00
29121;BME280;16191;49.548;8.658;2024-03-02T04:30:10;99096.97;;;6.30;100.00
29121;BME280;16191;49.548;8.658;2024-03-02T04:32:37;99091.56;;;6.36;100.00
29121;BME280;16191;49.548;8.658;2024-03-02T04:35:05;99093.31;;;6.36;100.00
29121;BME280;16191;49.548;8.658;2024-03-02T04:37:34;99096.97;;;6.30;100.00
29121;BME280;16191;49.548;8.658;2024-03-02T04:40:00;99096.84;;;6.33;100.00
29121;BME280;16191;49.548;8.658;2024-03-02T04:42:27;99095.84;;;6.37;100.00
29121;BME280;16191;49.548;8.658;2024-03-02T04:44:54;99092.53;;;6.34;100.00
29121;BME280;16191;49.548;8.658;2024-03-02T04:47:21;99096.97;;;6.30;100.00
29121;BME280;16191;49.548;8.658;2024-03-02T04:49:49;99099.13;;;6.41;100.00
29121;BME280;16191;49.548;8.658;2024-03-02T04:52:16;99102.50;;;6.43;100.00
29121;BME280;16191;49.548;8.658;2024-03-02T04:54:43;99104.25;;;6.42;100.00
29121;BME280;16191;49.548;8.658;2024-03-02T04:57:45;99101.59;;;6.44;100.00
29121;BME280;16191;49.548;8.658;2024-03-02T05:00:13;99104.19;;;6.44;100.00
29121;BME280;16191;49.548;8.658;2024-03-02T05:02:40;99111.19;;;6.42;100.00
29121;BME280;16191;49.548;8.658;2024-03-02T05:05:06;99125.06;;;6.41;100.00
29121;BME280;16191;49.548;8.658;2024-03-02T05:07:33;99118.00;;;6.44;100.00
29121;BME280;16191;49.548;8.658;2024-03-02T05:10:00;99130.13;;;6.44;100.00
29121;BME280;16191;49.548;8.658;2024-03-02T05:12:27;99132.41;;;6.50;100.00
29121;BME280;16191;49.548;8.658;2024-03-02T05:15:10;99140.28;;;6.48;100.00
29121;BME280;16191;49.548;8.658;2024-03-02T05:17:37;99147.00;;;6.52;100.00
29121;BME280;16191;49.548;8.658;2024-03-02T05:20:06;99142.78;;;6.50;100.00
29121;BME280;16191;49.548;8.658;2024-03-02T05:22:35;99158.53;;;6.25;100.00
29121;BME280;16191;49.548;8.658;2024-03-02T05:25:06;99156.38;;;6.35;100.00
29121;BME280;16191;49.548;8.658;2024-03-02T05:27:33;99154.63;;;5.93;100.00
29121;BME280;16191;49.548;8.658;2024-03-02T05:30:00;99160.63;;;6.15;100.00
29121;BME280;16191;49.548;8.658;2024-03-02T05:32:27;99172.56;;;6.19;100.00
29121;BME280;16191;49.548;8.658;2024-03-02T05:34:54;99169.25;;;6.16;100.00
29121;BME280;16191;49.548;8.658;2024-03-02T05:37:21;99173.53;;;6.17;100.00
29121;BME280;16191;49.548;8.658;2024-03-02T05:39:48;99172.06;;;6.10;100.00
29121;BME280;16191;49.548;8.658;2024-03-02T05:42:15;99171.28;;;6.08;100.00
29121;BME280;16191;49.548;8.658;2024-03-02T05:44:43;99168.69;;;6.08;100.00
29121;BME280;16191;49.548;8.658;2024-03-02T05:47:10;99159.63;;;5.98;100.00
29121;BME280;16191;49.548;8.658;2024-03-02T05:49:37;99165.16;;;6.10;100.00
29121;BME280;16191;49.548;8.658;2024-03-02T05:52:03;99165.16;;;6.10;100.00
29121;BME280;16191;49.548;8.658;2024-03-02T05:54:30;99161.25;;;6.00;100.00
29121;BME280;16191;49.548;8.658;2024-03-02T05:56:57;99161.19;;;6.02;100.00
29121;BME280;16191;49.548;8.658;2024-03-02T05:59:43;99166.84;;;5.90;100.00
29121;BME280;16191;49.548;8.658;2024-03-02T06:02:12;99149.31;;;5.96;100.00
29121;BME280;16191;49.548;8.658;2024-03-02T06:04:39;99154.78;;;5.89;100.00
29121;BME280;16191;49.548;8.658;2024-03-02T06:07:06;99138.97;;;5.96;100.00
29121;BME280;16191;49.548;8.658;2024-03-02T06:09:33;99145.66;;;6.02;100.00
29121;BME280;16191;49.548;8.658;2024-03-02T06:12:00;99142.50;;;5.94;100.00
29121;BME280;16191;49.548;8.658;2024-03-02T06:14:27;99142.50;;;5.94;100.00
29121;BME280;16191;49.548;8.658;2024-03-02T06:16:53;99144.72;;;5.81;100.00
29121;BME280;16191;49.548;8.658;2024-03-02T06:19:20;99156.47;;;5.90;100.00
29121;BME280;16191;49.548;8.658;2024-03-02T06:21:47;99155.72;;;5.86;100.00
29121;BME280;16191;49.548;8.658;2024-03-02T06:24:13;99166.53;;;5.97;100.00
29121;BME280;16191;49.548;8.658;2024-03-02T06:26:40;99165.88;;;5.92;100.00
29121;BME280;16191;49.548;8.658;2024-03-02T06:29:07;99169.13;;;5.97;100.00
29121;BME280;16191;49.548;8.658;2024-03-02T06:31:34;99168.53;;;5.91;100.00
29121;BME280;16191;49.548;8.658;2024-03-02T06:34:01;99168.34;;;5.95;100.00
29121;BME280;16191;49.548;8.658;2024-03-02T06:36:30;99168.53;;;5.91;100.00
29121;BME280;16191;49.548;8.658;2024-03-02T06:38:57;99166.00;;;5.89;100.00
29121;BME280;16191;49.548;8.658;2024-03-02T06:41:24;99170.81;;;5.98;100.00
29121;BME280;16191;49.548;8.658;2024-03-02T06:43:50;99175.63;;;6.07;100.00
29121;BME280;16191;49.548;8.658;2024-03-02T06:46:20;99184.19;;;6.09;100.00
29121;BME280;16191;49.548;8.658;2024-03-02T06:48:47;99185.06;;;6.08;100.00
29121;BME280;16191;49.548;8.658;2024-03-02T06:51:14;99181.91;;;6.02;100.00
29121;BME280;16191;49.548;8.658;2024-03-02T06:53:42;99178.38;;;6.04;100.00
29121;BME280;16191;49.548;8.658;2024-03-02T06:56:09;99183.59;;;6.03;100.00
29121;BME280;16191;49.548;8.658;2024-03-02T06:58:36;99184.50;;;6.02;100.00
29121;BME280;16191;49.548;8.658;2024-03-02T07:01:02;99185.13;;;6.07;100.00
29121;BME280;16191;49.548;8.658;2024-03-02T07:03:29;99177.31;;;6.08;100.00
29121;BME280;16191;49.548;8.658;2024-03-02T07:05:56;99184.44;;;6.03;100.00
29121;BME280;16191;49.548;8.658;2024-03-02T07:08:24;99182.53;;;6.07;100.00
29121;BME280;16191;49.548;8.658;2024-03-02T07:10:50;99189.34;;;6.09;100.00
29121;BME280;16191;49.548;8.658;2024-03-02T07:13:17;99187.88;;;5.80;100.00
29121;BME280;16191;49.548;8.658;2024-03-02T07:15:44;99191.66;;;5.95;100.00
29121;BME280;16191;49.548;8.658;2024-03-02T07:18:30;99192.00;;;6.08;100.00
29121;BME280;16191;49.548;8.658;2024-03-02T07:20:57;99201.28;;;6.13;100.00
29121;BME280;16191;49.548;8.658;2024-03-02T07:23:28;99207.97;;;6.19;100.00
29121;BME280;16191;49.548;8.658;2024-03-02T07:25:54;99204.66;;;6.15;100.00
29121;BME280;16191;49.548;8.658;2024-03-02T07:28:26;99188.47;;;6.10;100.00
29121;BME280;16191;49.548;8.658;2024-03-02T07:30:59;99191.94;;;6.09;100.00
29121;BME280;16191;49.548;8.658;2024-03-02T07:33:26;99192.44;;;6.19;100.00
29121;BME280;16191;49.548;8.658;2024-03-02T07:35:54;99193.06;;;6.26;100.00
29121;BME280;16191;49.548;8.658;2024-03-02T07:38:22;99196.44;;;6.28;100.00
29121;BME280;16191;49.548;8.658;2024-03-02T07:40:49;99198.69;;;6.35;100.00
29121;BME280;16191;49.548;8.658;2024-03-02T07:43:19;99194.47;;;6.33;100.00
29121;BME280;16191;49.548;8.658;2024-03-02T07:45:49;99199.34;;;6.40;100.00
29121;BME280;16191;49.548;8.658;2024-03-02T07:48:16;99201.38;;;6.54;100.00
29121;BME280;16191;49.548;8.658;2024-03-02T07:50:43;99197.56;;;6.63;100.00
29121;BME280;16191;49.548;8.658;2024-03-02T07:53:10;99201.84;;;6.84;100.00
29121;BME280;16191;49.548;8.658;2024-03-02T07:55:36;99205.81;;;6.93;100.00
29121;BME280;16191;49.548;8.658;2024-03-02T07:58:03;99211.44;;;7.02;100.00
29121;BME280;16191;49.548;8.658;2024-03-02T08:00:30;99207.28;;;7.18;100.00
29121;BME280;16191;49.548;8.658;2024-03-02T08:02:58;99214.25;;;7.37;100.00
29121;BME280;16191;49.548;8.658;2024-03-02T08:05:25;99207.81;;;7.45;100.00
29121;BME280;16191;49.548;8.658;2024-03-02T08:07:53;99212.94;;;7.66;100.00
29121;BME280;16191;49.548;8.658;2024-03-02T08:10:20;99218.59;;;7.75;100.00
29121;BME280;16191;49.548;8.658;2024-03-02T08:12:47;99215.22;;;7.73;100.00
29121;BME280;16191;49.548;8.658;2024-03-02T08:15:14;99217.69;;;7.76;100.00
29121;BME280;16191;49.548;8.658;2024-03-02T08:17:41;99218.84;;;7.88;100.00
29121;BME280;16191;49.548;8.658;2024-03-02T08:20:12;99228.38;;;8.06;100.00
29121;BME280;16191;49.548;8.658;2024-03-02T08:22:39;99226.41;;;8.11;100.00
29121;BME280;16191;49.548;8.658;2024-03-02T08:25:07;99225.50;;;8.12;100.00
29121;BME280;16191;49.548;8.658;2024-03-02T08:27:34;99234.06;;;8.33;100.00
29121;BME280;16191;49.548;8.658;2024-03-02T08:30:02;99224.25;;;8.40;100.00
29121;BME280;16191;49.548;8.658;2024-03-02T08:32:33;99234.25;;;8.29;100.00
29121;BME280;16191;49.548;8.658;2024-03-02T08:35:00;99233.56;;;8.44;100.00
29121;BME280;16191;49.548;8.658;2024-03-02T08:37:27;99230.09;;;8.79;100.00
29121;BME280;16191;49.548;8.658;2024-03-02T08:39:54;99236.50;;;8.89;100.00
29121;BME280;16191;49.548;8.658;2024-03-02T08:42:21;99234.28;;;9.16;100.00
29121;BME280;16191;49.548;8.658;2024-03-02T08:44:49;99219.97;;;9.25;100.00
29121;BME280;16191;49.548;8.658;2024-03-02T08:47:16;99227.91;;;9.22;100.00
29121;BME280;16191;49.548;8.658;2024-03-02T08:49:43;99233.50;;;9.14;100.00
29121;BME280;16191;49.548;8.658;2024-03-02T08:52:09;99222.66;;;9.39;100.00
29121;BME280;16191;49.548;8.658;2024-03-02T08:54:36;99214.88;;;9.55;100.00
29121;BME280;16191;49.548;8.658;2024-03-02T08:57:05;99220.22;;;9.69;100.00
29121;BME280;16191;49.548;8.658;2024-03-02T08:59:32;99218.09;;;9.76;100.00
29121;BME280;16191;49.548;8.658;2024-03-02T09:01:59;99227.25;;;9.51;100.00
29121;BME280;16191;49.548;8.658;2024-03-02T09:04:26;99225.03;;;9.44;100.00
29121;BME280;16191;49.548;8.658;2024-03-02T09:06:54;99219.22;;;9.72;100.00
29121;BME280;16191;49.548;8.658;2024-03-02T09:09:22;99213.25;;;9.70;100.00
29121;BME280;16191;49.548;8.658;2024-03-02T09:11:49;99212.72;;;9.63;100.00
29121;BME280;16191;49.548;8.658;2024-03-02T09:14:15;99208.66;;;9.90;100.00
29121;BME280;16191;49.548;8.658;2024-03-02T09:16:42;99208.91;;;10.17;100.00
29121;BME280;16191;49.548;8.658;2024-03-02T09:19:09;99205.78;;;10.26;100.00
29121;BME280;16191;49.548;8.658;2024-03-02T09:21:37;99206.38;;;10.32;100.00
29121;BME280;16191;49.548;8.658;2024-03-02T09:24:04;99200.53;;;10.58;100.00
29121;BME280;16191;49.548;8.658;2024-03-02T09:26:33;99200.13;;;10.80;100.00
29121;BME280;16191;49.548;8.658;2024-03-02T09:29:00;99199.41;;;10.92;100.00
29121;BME280;16191;49.548;8.658;2024-03-02T09:31:26;99205.03;;;11.14;100.00
29121;BME280;16191;49.548;8.658;2024-03-02T09:33:53;99201.13;;;11.21;100.00
29121;BME280;16191;49.548;8.658;2024-03-02T09:36:22;99199.38;;;11.36;100.00
29121;BME280;16191;49.548;8.658;2024-03-02T09:38:49;99194.53;;;11.44;100.00
29121;BME280;16191;49.548;8.658;2024-03-02T09:41:16;99203.00;;;11.76;100.00
29121;BME280;16191;49.548;8.658;2024-03-02T09:43:44;99198.13;;;11.98;100.00
29121;BME280;16191;49.548;8.658;2024-03-02T09:46:11;99194.97;;;11.51;100.00
29121;BME280;16191;49.548;8.658;2024-03-02T09:48:38;99198.31;;;11.95;100.00
29121;BME280;16191;49.548;8.658;2024-03-02T09:51:05;99196.28;;;12.27;100.00
29121;BME280;16191;49.548;8.658;2024-03-02T09:53:33;99198.66;;;12.57;100.00
29121;BME280;16191;49.548;8.658;2024-03-02T09:56:01;99197.53;;;12.08;100.00
29121;BME280;16191;49.548;8.658;2024-03-02T09:58:28;99193.78;;;12.39;100.00
29121;BME280;16191;49.548;8.658;2024-03-02T10:00:55;99198.72;;;12.43;100.00
29121;BME280;16191;49.548;8.658;2024-03-02T10:03:26;99194.84;;;12.76;100.00
29121;BME280;16191;49.548;8.658;2024-03-02T10:05:53;99196.72;;;12.74;100.00
29121;BME280;16191;49.548;8.658;2024-03-02T10:08:20;99181.41;;;13.20;100.00
29121;BME280;16191;49.548;8.658;2024-03-02T10:10:46;99184.94;;;13.44;100.00
29121;BME280;16191;49.548;8.658;2024-03-02T10:13:13;99179.00;;;13.42;100.00
29121;BME280;16191;49.548;8.658;2024-03-02T10:15:40;99175.47;;;13.67;100.00
29121;BME280;16191;49.548;8.658;2024-03-02T10:18:09;99175.63;;;13.40;100.00
29121;BME280;16191;49.548;8.658;2024-03-02T10:20:38;99172.03;;;13.54;100.00
29121;BME280;16191;49.548;8.658;2024-03-02T10:23:10;99168.56;;;13.66;100.00
29121;BME280;16191;49.548;8.658;2024-03-02T10:25:37;99170.06;;;13.32;100.00
29121;BME280;16191;49.548;8.658;2024-03-02T10:28:16;99165.19;;;13.77;100.00
29121;BME280;16191;49.548;8.658;2024-03-02T10:30:47;99156.00;;;13.95;100.00
29121;BME280;16191;49.548;8.658;2024-03-02T10:33:17;99157.03;;;14.29;100.00
29121;BME280;16191;49.548;8.658;2024-03-02T10:35:44;99146.06;;;14.59;100.00
29121;BME280;16191;49.548;8.658;2024-03-02T10:38:11;99154.03;;;14.46;100.00
29121;BME280;16191;49.548;8.658;2024-03-02T10:40:38;99154.44;;;14.64;100.00
29121;BME280;16191;49.548;8.658;2024-03-02T10:43:05;99147.00;;;14.58;100.00
29121;BME280;16191;49.548;8.658;2024-03-02T10:45:34;99144.94;;;14.85;100.00
29121;BME280;16191;49.548;8.658;2024-03-02T10:48:02;99145.44;;;14.90;100.00
29121;BME280;16191;49.548;8.658;2024-03-02T10:50:29;99153.72;;;14.73;100.00
29121;BME280;16191;49.548;8.658;2024-03-02T10:52:57;99146.84;;;14.72;100.00
29121;BME280;16191;49.548;8.658;2024-03-02T10:55:23;99143.53;;;14.33;100.00
29121;BME280;16191;49.548;8.658;2024-03-02T10:57:52;99142.50;;;14.60;100.00
29121;BME280;16191;49.548;8.658;2024-03-02T11:00:25;99141.94;;;14.67;100.00
29121;BME280;16191;49.548;8.658;2024-03-02T11:02:58;99137.63;;;14.66;100.00
29121;BME280;16191;49.548;8.658;2024-03-02T11:05:33;99131.47;;;14.44;100.00
29121;BME280;16191;49.548;8.658;2024-03-02T11:08:08;99136.81;;;14.77;100.00
29121;BME280;16191;49.548;8.658;2024-03-02T11:10:39;99142.59;;;15.04;94.43
29121;BME280;16191;49.548;8.658;2024-03-02T11:13:09;99141.75;;;14.93;76.65
29121;BME280;16191;49.548;8.658;2024-03-02T11:15:40;99135.50;;;14.83;88.15
29121;BME280;16191;49.548;8.658;2024-03-02T11:18:07;99135.81;;;15.13;87.17
29121;BME280;16191;49.548;8.658;2024-03-02T11:20:40;99137.22;;;15.06;75.30
29121;BME280;16191;49.548;8.658;2024-03-02T11:23:08;99133.03;;;15.48;69.76
29121;BME280;16191;49.548;8.658;2024-03-02T11:25:36;99130.75;;;14.99;64.77
29121;BME280;16191;49.548;8.658;2024-03-02T11:28:04;99133.59;;;14.96;68.52
29121;BME280;16191;49.548;8.658;2024-03-02T11:32:58;99121.34;;;15.41;69.37
29121;BME280;16191;49.548;8.658;2024-03-02T11:35:26;99118.38;;;15.34;66.18
29121;BME280;16191;49.548;8.658;2024-03-02T11:37:53;99110.69;;;15.20;61.79
29121;BME280;16191;49.548;8.658;2024-03-02T11:40:23;99110.53;;;16.00;64.50
29121;BME280;16191;49.548;8.658;2024-03-02T11:42:50;99107.41;;;15.95;59.98
29121;BME280;16191;49.548;8.658;2024-03-02T11:45:22;99093.75;;;16.33;61.70
29121;BME280;16191;49.548;8.658;2024-03-02T11:47:57;99089.22;;;16.76;60.19
29121;BME280;16191;49.548;8.658;2024-03-02T11:50:34;99088.19;;;16.68;57.33
29121;BME280;16191;49.548;8.658;2024-03-02T11:53:02;99097.00;;;15.93;55.64
29121;BME280;16191;49.548;8.658;2024-03-02T11:55:35;99092.28;;;15.65;58.09
29121;BME280;16191;49.548;8.658;2024-03-02T11:58:05;99087.63;;;15.80;58.78
29121;BME280;16191;49.548;8.658;2024-03-02T12:00:32;99081.09;;;16.27;58.42
29121;BME280;16191;49.548;8.658;2024-03-02T12:03:07;99080.91;;;16.19;57.29
29121;BME280;16191;49.548;8.658;2024-03-02T12:05:34;99072.25;;;16.49;59.02
29121;BME280;16191;49.548;8.658;2024-03-02T12:08:03;99067.69;;;16.51;57.88
29121;BME280;16191;49.548;8.658;2024-03-02T12:10:31;99069.72;;;17.09;60.62
29121;BME280;16191;49.548;8.658;2024-03-02T12:12:58;99056.09;;;17.44;59.50
29121;BME280;16191;49.548;8.658;2024-03-02T12:15:27;99056.25;;;17.62;60.08
29121;BME280;16191;49.548;8.658;2024-03-02T12:17:58;99051.75;;;17.74;57.98
29121;BME280;16191;49.548;8.658;2024-03-02T12:20:27;99051.31;;;17.78;59.14
29121;BME280;16191;49.548;8.658;2024-03-02T12:22:58;99039.38;;;17.65;53.89
29121;BME280;16191;49.548;8.658;2024-03-02T12:25:26;99035.50;;;18.07;57.08
29121;BME280;16191;49.548;8.658;2024-03-02T12:27:54;99036.47;;;17.87;54.52
29121;BME280;16191;49.548;8.658;2024-03-02T12:30:22;99033.47;;;17.42;52.71
29121;BME280;16191;49.548;8.658;2024-03-02T12:32:50;99025.75;;;18.27;53.18
29121;BME280;16191;49.548;8.658;2024-03-02T12:35:17;99029.88;;;18.59;54.24
29121;BME280;16191;49.548;8.658;2024-03-02T12:37:46;99026.06;;;18.14;50.33
29121;BME280;16191;49.548;8.658;2024-03-02T12:40:13;99031.03;;;17.79;50.59
29121;BME280;16191;49.548;8.658;2024-03-02T12:42:41;99034.44;;;17.01;50.72
29121;BME280;16191;49.548;8.658;2024-03-02T12:45:09;99033.28;;;17.34;51.13
29121;BME280;16191;49.548;8.658;2024-03-02T12:47:36;99021.34;;;17.70;50.52
29121;BME280;16191;49.548;8.658;2024-03-02T12:50:07;99023.31;;;17.97;49.21
29121;BME280;16191;49.548;8.658;2024-03-02T12:52:34;99015.03;;;18.48;51.62
29121;BME280;16191;49.548;8.658;2024-03-02T12:55:01;99017.56;;;18.21;48.24
29121;BME280;16191;49.548;8.658;2024-03-02T12:57:32;99015.41;;;18.63;48.14
29121;BME280;16191;49.548;8.658;2024-03-02T13:00:05;99017.78;;;18.66;47.39
29121;BME280;16191;49.548;8.658;2024-03-02T13:02:40;99008.06;;;18.57;47.50
29121;BME280;16191;49.548;8.658;2024-03-02T13:05:08;99009.13;;;18.83;47.68
29121;BME280;16191;49.548;8.658;2024-03-02T13:07:38;99007.75;;;19.06;47.79
29121;BME280;16191;49.548;8.658;2024-03-02T13:10:08;99005.53;;;18.65;47.89